Coleman, Arkansas
Current Conditions -  °F | °C
As of 10:53 PM on Saturday 22 Nov 2014 (Local Time) from KLLQ Reporting Station
Overcast Overcast  
Wind Chill: 59°   Ceiling: 4200
Heat Index: 59°   Visibility: 10mi
Dew Point: 51°   Wind: 5mph
Humidity: 75%   Direction: 100°E
Pressure: 29.89"   Gusts: NA
Location:  33.5819°N, 91.7907°W
Report Text: KLLQ 230453Z AUTO 10004KT 10SM OVC042 15/11 A2989 RMK AO2 SLP120 T01500106
Loading
Personal Weather Stations






























Interactive Weather Map New forecast layout! Learn more

10-Day Weather Forecast

Advertisements
Track Severe Weather on mobile